createdAt,value
2023-03-31T00:01:30.839Z,7.82
2023-03-31T00:04:04.808Z,7.68
2023-03-31T00:06:37.905Z,8.05
2023-03-31T00:09:10.275Z,7.82
2023-03-31T00:11:39.512Z,7.80
2023-03-31T00:14:08.944Z,8.10
2023-03-31T00:16:37.513Z,7.85
2023-03-31T00:19:10.174Z,7.93
2023-03-31T00:21:37.871Z,7.80
2023-03-31T00:24:08.776Z,7.70
2023-03-31T00:26:37.077Z,7.43
2023-03-31T00:29:06.195Z,7.10
2023-03-31T00:31:34.672Z,7.00
2023-03-31T00:34:02.551Z,7.10
2023-03-31T00:36:31.115Z,6.63
2023-03-31T00:39:02.434Z,6.95
2023-03-31T00:41:31.497Z,7.80
2023-03-31T00:44:08.300Z,7.70
2023-03-31T00:46:39.868Z,6.07
2023-03-31T00:49:16.221Z,6.50
2023-03-31T00:51:46.021Z,7.20
2023-03-31T00:54:15.408Z,7.90
2023-03-31T00:56:49.134Z,7.55
2023-03-31T00:59:17.752Z,8.32
2023-03-31T01:01:50.505Z,8.90
2023-03-31T01:04:22.480Z,8.82
2023-03-31T01:07:00.807Z,7.68
2023-03-31T01:09:34.814Z,7.93
2023-03-31T01:12:08.355Z,8.23
2023-03-31T01:14:36.734Z,7.93
2023-03-31T01:17:05.259Z,7.20
2023-03-31T01:19:49.914Z,8.23
2023-03-31T01:22:46.871Z,7.78
2023-03-31T01:25:43.557Z,8.07
2023-03-31T01:28:23.044Z,8.07
2023-03-31T01:31:27.509Z,7.70
2023-03-31T01:34:34.659Z,7.18
2023-03-31T01:37:37.582Z,6.72
2023-03-31T01:40:19.517Z,6.72
2023-03-31T01:42:53.920Z,6.03
2023-03-31T01:45:33.245Z,6.30
2023-03-31T01:48:08.843Z,6.28
2023-03-31T01:50:43.493Z,6.32
2023-03-31T01:53:21.502Z,6.20
2023-03-31T01:55:59.947Z,6.82
2023-03-31T01:58:45.321Z,6.22
2023-03-31T02:01:19.748Z,6.28
2023-03-31T02:03:53.106Z,6.60
2023-03-31T02:06:25.481Z,6.45
2023-03-31T02:08:58.236Z,6.18
2023-03-31T02:11:31.952Z,7.25
2023-03-31T02:14:02.826Z,6.82
2023-03-31T02:16:34.052Z,6.85
2023-03-31T02:19:06.109Z,7.18
2023-03-31T02:21:35.483Z,8.80
2023-03-31T02:24:08.527Z,7.00
2023-03-31T02:26:43.269Z,7.68
2023-03-31T02:29:10.982Z,7.20
2023-03-31T02:31:47.582Z,7.57
2023-03-31T02:34:15.796Z,7.88
2023-03-31T02:36:45.392Z,7.40
2023-03-31T02:39:16.701Z,8.13
2023-03-31T02:41:45.976Z,7.70
2023-03-31T02:44:13.765Z,7.22
2023-03-31T02:46:42.078Z,7.30
2023-03-31T02:49:12.840Z,7.68
2023-03-31T02:52:21.953Z,7.80
2023-03-31T02:55:16.071Z,7.78
2023-03-31T02:58:20.096Z,8.13
2023-03-31T03:01:01.572Z,8.52
2023-03-31T03:03:40.265Z,8.30
2023-03-31T03:06:22.169Z,7.93
2023-03-31T03:09:06.315Z,7.50
2023-03-31T03:11:45.931Z,8.13
2023-03-31T03:14:22.346Z,8.13
2023-03-31T03:16:58.955Z,7.90
2023-03-31T03:19:27.193Z,8.10
2023-03-31T03:21:55.040Z,8.32
2023-03-31T03:24:23.614Z,8.25
2023-03-31T03:26:51.956Z,8.82
2023-03-31T03:29:19.776Z,7.85
2023-03-31T03:31:47.404Z,8.52
2023-03-31T03:34:16.475Z,9.25
2023-03-31T03:36:44.101Z,8.90
2023-03-31T03:39:12.237Z,8.82
2023-03-31T03:41:40.327Z,9.00
2023-03-31T03:44:07.976Z,9.02
2023-03-31T03:46:35.713Z,9.30
2023-03-31T03:49:03.442Z,9.88
2023-03-31T03:51:32.508Z,10.32
2023-03-31T03:54:00.251Z,10.57
2023-03-31T03:56:28.308Z,10.45
2023-03-31T03:58:56.162Z,10.38
2023-03-31T04:01:23.877Z,10.25
2023-03-31T04:03:51.508Z,11.15
2023-03-31T04:06:19.222Z,11.38
2023-03-31T04:08:48.259Z,11.60
2023-03-31T04:11:18.686Z,10.73
2023-03-31T04:13:47.481Z,11.07
2023-03-31T04:16:16.846Z,11.07
2023-03-31T04:18:44.679Z,11.55
2023-03-31T04:21:15.522Z,11.65
2023-03-31T04:23:46.852Z,10.98
2023-03-31T04:26:17.721Z,11.23
2023-03-31T04:28:50.527Z,12.38
2023-03-31T04:31:25.528Z,11.80
2023-03-31T04:33:53.698Z,12.38
2023-03-31T04:36:22.041Z,12.50
2023-03-31T04:38:54.849Z,12.90
2023-03-31T04:41:25.146Z,11.88
2023-03-31T04:43:52.827Z,11.32
2023-03-31T04:46:21.057Z,11.05
2023-03-31T04:48:48.812Z,10.63
2023-03-31T04:51:16.638Z,11.98
2023-03-31T04:53:44.661Z,11.68
2023-03-31T04:56:12.401Z,10.77
2023-03-31T04:58:41.520Z,11.43
2023-03-31T05:01:09.317Z,11.90
2023-03-31T05:03:37.200Z,13.32
2023-03-31T05:06:05.600Z,12.20
2023-03-31T05:08:34.087Z,12.95
2023-03-31T05:11:04.033Z,13.27
2023-03-31T05:13:31.883Z,12.02
2023-03-31T05:16:07.470Z,13.60
2023-03-31T05:18:35.448Z,13.98
2023-03-31T05:21:11.459Z,13.73
2023-03-31T05:23:39.129Z,13.32
2023-03-31T05:26:08.210Z,13.52
2023-03-31T05:28:44.352Z,14.27
2023-03-31T05:31:14.282Z,15.15
2023-03-31T05:33:42.391Z,14.57
2023-03-31T05:36:11.719Z,14.15
2023-03-31T05:38:39.882Z,14.27
2023-03-31T05:41:09.312Z,15.77
2023-03-31T05:43:37.341Z,15.20
2023-03-31T05:46:05.807Z,14.82
2023-03-31T05:48:35.449Z,15.52
2023-03-31T05:51:03.405Z,14.00
2023-03-31T05:53:31.577Z,14.63
2023-03-31T05:55:59.957Z,15.32
2023-03-31T05:58:28.123Z,15.05
2023-03-31T06:01:06.119Z,15.80
2023-03-31T06:03:36.662Z,15.30
2023-03-31T06:06:05.364Z,15.57
2023-03-31T06:08:33.492Z,14.88
2023-03-31T06:11:01.565Z,13.95
2023-03-31T06:13:29.216Z,13.07
2023-03-31T06:15:58.376Z,13.40
2023-03-31T06:18:28.690Z,12.40
2023-03-31T06:20:58.544Z,11.27
2023-03-31T06:23:27.758Z,11.52
2023-03-31T06:25:55.594Z,10.73
2023-03-31T06:28:23.319Z,11.30
2023-03-31T06:30:51.068Z,11.23
2023-03-31T06:33:18.859Z,10.52
2023-03-31T06:35:46.631Z,10.88
2023-03-31T06:38:15.795Z,11.75
2023-03-31T06:40:43.759Z,12.18
2023-03-31T06:43:11.507Z,11.43
2023-03-31T06:45:39.336Z,10.30
2023-03-31T06:48:07.895Z,9.68
2023-03-31T06:50:38.692Z,9.48
2023-03-31T06:53:06.528Z,9.88
2023-03-31T06:55:36.139Z,10.18
2023-03-31T06:58:04.746Z,9.85
2023-03-31T07:00:32.714Z,9.73
2023-03-31T07:03:01.506Z,9.70
2023-03-31T07:05:29.337Z,9.07
2023-03-31T07:07:58.422Z,9.63
2023-03-31T07:10:28.142Z,10.60
2023-03-31T07:12:57.611Z,10.32
2023-03-31T07:15:26.333Z,9.50
2023-03-31T07:18:01.903Z,10.77
2023-03-31T07:20:31.076Z,10.85
2023-03-31T07:22:58.896Z,10.05
2023-03-31T07:25:26.781Z,10.80
2023-03-31T07:27:54.594Z,10.45
2023-03-31T07:30:24.605Z,10.98
2023-03-31T07:32:54.596Z,10.93
2023-03-31T07:35:24.040Z,12.25
2023-03-31T07:37:52.758Z,12.25
2023-03-31T07:40:22.700Z,12.38
2023-03-31T07:42:52.372Z,18.00
2023-03-31T07:45:21.561Z,14.07
2023-03-31T07:47:51.113Z,13.27
2023-03-31T07:50:19.957Z,11.93
2023-03-31T07:52:47.991Z,12.48
2023-03-31T07:55:16.741Z,12.30
2023-03-31T07:57:46.306Z,11.68
2023-03-31T08:00:15.845Z,14.68
2023-03-31T08:02:44.283Z,13.43
2023-03-31T08:05:17.944Z,12.30
2023-03-31T08:07:48.138Z,12.40
2023-03-31T08:10:19.678Z,11.68
2023-03-31T08:12:47.414Z,11.55
2023-03-31T08:15:15.518Z,11.27
2023-03-31T08:17:43.416Z,10.55
2023-03-31T08:20:13.366Z,10.85
2023-03-31T08:22:41.815Z,10.82
2023-03-31T08:25:10.420Z,11.63
2023-03-31T08:27:39.895Z,11.57
2023-03-31T08:30:09.549Z,10.43
2023-03-31T08:32:37.515Z,11.65
2023-03-31T08:35:06.284Z,12.30
2023-03-31T08:37:42.704Z,11.23
2023-03-31T08:40:18.062Z,11.88
2023-03-31T08:42:48.614Z,11.93
2023-03-31T08:45:22.199Z,11.80
2023-03-31T08:47:54.330Z,11.38
2023-03-31T08:50:26.298Z,7.43
2023-03-31T08:53:03.916Z,9.43
2023-03-31T08:55:40.771Z,9.48
2023-03-31T08:58:14.952Z,10.60
2023-03-31T09:00:51.328Z,10.63
2023-03-31T09:03:27.950Z,10.45
2023-03-31T09:06:01.793Z,10.88
2023-03-31T09:08:37.309Z,11.18
2023-03-31T09:13:56.711Z,8.73
2023-03-31T09:16:28.565Z,8.05
2023-03-31T09:19:01.322Z,7.63
2023-03-31T09:21:32.860Z,7.32
2023-03-31T09:24:07.436Z,8.00
2023-03-31T09:26:40.229Z,6.43
2023-03-31T09:29:18.640Z,7.82
2023-03-31T09:31:47.558Z,6.63
2023-03-31T09:34:18.573Z,6.60
2023-03-31T09:36:46.387Z,6.68
2023-03-31T09:39:16.210Z,5.70
2023-03-31T09:41:47.995Z,5.40
2023-03-31T09:44:25.572Z,5.82
2023-03-31T09:46:54.273Z,5.38
2023-03-31T09:49:23.982Z,6.05
2023-03-31T09:52:02.494Z,5.75
2023-03-31T09:54:37.263Z,6.10
2023-03-31T09:57:15.189Z,5.18
2023-03-31T09:59:44.115Z,5.57
2023-03-31T10:02:34.904Z,5.90
2023-03-31T10:05:03.019Z,4.65
2023-03-31T10:07:30.993Z,5.40
2023-03-31T10:10:00.436Z,5.22
2023-03-31T10:12:30.398Z,5.50
2023-03-31T10:15:17.629Z,4.72
2023-03-31T10:17:54.914Z,5.28
2023-03-31T10:20:34.185Z,4.57
2023-03-31T10:23:07.596Z,4.18
2023-03-31T10:25:36.658Z,3.78
2023-03-31T10:28:04.762Z,4.40
2023-03-31T10:30:38.153Z,4.63
2023-03-31T10:33:23.121Z,4.85
2023-03-31T10:35:57.007Z,5.70
2023-03-31T10:38:28.774Z,4.88
2023-03-31T10:41:00.143Z,5.03
2023-03-31T10:43:39.592Z,5.30
2023-03-31T10:46:07.330Z,4.72
2023-03-31T10:48:38.689Z,3.78
2023-03-31T10:51:14.826Z,4.88
2023-03-31T10:53:43.994Z,3.92
2023-03-31T10:56:36.187Z,4.47
2023-03-31T10:59:20.434Z,4.55
2023-03-31T11:02:03.328Z,4.30
2023-03-31T11:04:48.894Z,4.30
2023-03-31T11:07:32.317Z,4.70
2023-03-31T11:10:22.260Z,5.30
2023-03-31T11:12:57.148Z,5.15
2023-03-31T11:15:31.421Z,5.00
2023-03-31T11:18:19.885Z,5.10
2023-03-31T11:20:57.187Z,5.50
2023-03-31T11:23:35.136Z,5.65
2023-03-31T11:26:09.507Z,6.10
2023-03-31T11:28:54.612Z,7.32
2023-03-31T11:31:32.952Z,5.40
2023-03-31T11:34:30.382Z,4.65
2023-03-31T11:37:19.512Z,2.60
2023-03-31T11:40:01.776Z,2.65
2023-03-31T11:42:36.017Z,2.38
2023-03-31T11:45:14.521Z,2.67
2023-03-31T11:47:47.098Z,2.40
2023-03-31T11:50:20.149Z,2.10
2023-03-31T11:52:56.169Z,2.15
2023-03-31T11:55:27.844Z,2.20
2023-03-31T11:58:03.534Z,2.25
2023-03-31T12:00:37.218Z,2.17
2023-03-31T12:03:11.820Z,2.38
2023-03-31T12:05:45.200Z,2.28
2023-03-31T12:08:20.063Z,2.10
2023-03-31T12:10:54.661Z,2.30
2023-03-31T12:13:41.275Z,2.35
2023-03-31T12:16:16.629Z,1.92
2023-03-31T12:18:54.511Z,2.03
2023-03-31T12:21:24.711Z,2.58
2023-03-31T12:23:52.487Z,2.33
2023-03-31T12:26:36.219Z,2.67
2023-03-31T12:29:08.814Z,2.28
2023-03-31T12:31:41.671Z,2.03
2023-03-31T12:34:14.673Z,2.38
2023-03-31T12:36:55.392Z,2.33
2023-03-31T12:39:34.389Z,2.60
2023-03-31T12:42:27.522Z,2.38
2023-03-31T12:45:02.866Z,2.83
2023-03-31T12:47:46.517Z,2.55
2023-03-31T12:50:42.891Z,2.67
2023-03-31T12:53:20.475Z,2.90
2023-03-31T12:55:49.984Z,2.50
2023-03-31T12:58:41.274Z,2.80
2023-03-31T13:01:12.071Z,2.83
2023-03-31T13:03:46.142Z,3.03
2023-03-31T13:06:49.337Z,1.77
2023-03-31T13:09:43.090Z,2.17
2023-03-31T13:12:16.345Z,1.50
2023-03-31T13:14:46.302Z,1.30
2023-03-31T13:17:21.982Z,1.63
2023-03-31T13:19:52.391Z,1.65
2023-03-31T13:22:35.758Z,1.50
2023-03-31T13:25:34.101Z,1.70
2023-03-31T13:28:16.230Z,1.50
2023-03-31T13:30:56.805Z,1.38
2023-03-31T13:33:32.132Z,1.35
2023-03-31T13:36:19.589Z,1.55
2023-03-31T13:38:59.586Z,1.75
2023-03-31T13:41:46.248Z,1.45
2023-03-31T13:45:05.161Z,1.45
2023-03-31T13:48:01.829Z,1.08
2023-03-31T13:50:55.007Z,1.40
2023-03-31T13:53:39.512Z,1.10
2023-03-31T13:56:49.599Z,2.30
2023-03-31T13:59:35.788Z,1.60
2023-03-31T14:02:43.738Z,1.60
2023-03-31T14:05:34.205Z,1.45
2023-03-31T14:08:06.921Z,1.80
2023-03-31T14:10:38.628Z,1.60
2023-03-31T14:13:12.294Z,1.55
2023-03-31T14:15:43.198Z,2.08
2023-03-31T14:18:15.354Z,1.75
2023-03-31T14:20:53.385Z,1.52
2023-03-31T14:23:34.130Z,1.83
2023-03-31T14:26:08.062Z,1.80
2023-03-31T14:28:52.552Z,2.08
2023-03-31T14:31:25.022Z,2.00
2023-03-31T14:34:15.934Z,1.60
2023-03-31T14:36:52.855Z,2.00
2023-03-31T14:39:24.191Z,4.18
2023-03-31T14:41:55.244Z,6.18
2023-03-31T14:44:23.813Z,2.80
2023-03-31T14:46:52.816Z,4.10
2023-03-31T14:49:23.499Z,2.58
2023-03-31T14:51:54.003Z,5.43
2023-03-31T14:54:22.668Z,1.45
2023-03-31T14:56:54.311Z,0.80
2023-03-31T14:59:27.613Z,0.93
2023-03-31T15:01:57.743Z,1.20
2023-03-31T15:04:41.483Z,1.23
2023-03-31T15:07:10.045Z,1.02
2023-03-31T15:09:38.450Z,1.17
2023-03-31T15:12:09.377Z,0.95
2023-03-31T15:14:43.891Z,1.02
2023-03-31T15:17:19.061Z,1.60
2023-03-31T15:19:46.818Z,1.20
2023-03-31T15:22:18.871Z,1.75
2023-03-31T15:24:47.554Z,1.10
2023-03-31T15:27:26.328Z,1.30
2023-03-31T15:30:02.653Z,1.52
2023-03-31T15:32:33.089Z,1.33
2023-03-31T15:35:18.627Z,1.50
2023-03-31T15:37:52.200Z,1.40
2023-03-31T15:40:23.780Z,1.60
2023-03-31T15:43:06.475Z,1.50
2023-03-31T15:45:53.158Z,1.70
2023-03-31T15:48:24.787Z,1.17
2023-03-31T15:50:53.401Z,1.92
2023-03-31T15:53:29.786Z,1.80
2023-03-31T15:55:59.882Z,1.50
2023-03-31T15:58:48.651Z,1.52
2023-03-31T16:01:17.873Z,4.63
2023-03-31T16:03:55.570Z,1.55
2023-03-31T16:06:31.415Z,1.85
2023-03-31T16:09:14.994Z,1.67
2023-03-31T16:11:46.619Z,1.38
2023-03-31T16:14:19.982Z,1.77
2023-03-31T16:16:53.793Z,1.65
2023-03-31T16:19:24.853Z,2.20
2023-03-31T16:21:55.954Z,2.13
2023-03-31T16:24:31.876Z,2.00
2023-03-31T16:27:05.998Z,2.20
2023-03-31T16:29:34.562Z,2.13
2023-03-31T16:32:12.301Z,1.92
2023-03-31T16:34:57.463Z,2.20
2023-03-31T16:37:26.222Z,2.40
2023-03-31T16:39:54.586Z,2.47
2023-03-31T16:42:22.340Z,2.60
2023-03-31T16:47:39.513Z,2.33
2023-03-31T16:50:08.916Z,2.55
2023-03-31T16:52:39.419Z,2.30
2023-03-31T16:55:07.836Z,3.40
2023-03-31T16:57:35.588Z,4.88
2023-03-31T17:00:03.548Z,2.42
2023-03-31T17:02:31.398Z,1.10
2023-03-31T17:05:18.768Z,1.55
2023-03-31T17:07:47.341Z,0.95
2023-03-31T17:10:15.122Z,1.17
2023-03-31T17:12:43.157Z,1.10
2023-03-31T17:15:12.093Z,1.58
2023-03-31T17:17:40.346Z,0.73
2023-03-31T17:20:11.384Z,1.20
2023-03-31T17:22:39.520Z,1.30
2023-03-31T17:25:08.050Z,1.20
2023-03-31T17:27:36.190Z,0.90
2023-03-31T17:32:37.872Z,1.52
2023-03-31T17:35:13.208Z,1.23
2023-03-31T17:37:42.296Z,1.20
2023-03-31T17:40:10.929Z,1.30
2023-03-31T17:42:39.046Z,1.20
2023-03-31T17:45:08.724Z,1.15
2023-03-31T17:47:36.582Z,1.00
2023-03-31T17:50:04.940Z,1.80
2023-03-31T17:52:33.354Z,0.80
2023-03-31T17:55:02.564Z,1.05
2023-03-31T17:57:30.530Z,1.00
2023-03-31T17:59:58.598Z,0.90
2023-03-31T18:02:26.394Z,1.15
2023-03-31T18:04:54.698Z,1.20
2023-03-31T18:07:23.283Z,0.90
2023-03-31T18:09:51.168Z,1.08
2023-03-31T18:12:20.352Z,1.42
2023-03-31T18:15:19.150Z,0.85
2023-03-31T18:17:46.892Z,1.30
2023-03-31T18:20:14.556Z,1.52
2023-03-31T18:22:42.230Z,1.63
2023-03-31T18:25:11.460Z,1.42
2023-03-31T18:27:40.685Z,3.28
2023-03-31T18:30:09.995Z,1.25
2023-03-31T18:32:38.622Z,1.20
2023-03-31T18:35:07.392Z,1.20
2023-03-31T18:37:35.174Z,0.90
2023-03-31T18:40:03.711Z,1.05
2023-03-31T18:42:31.471Z,1.02
2023-03-31T18:45:00.874Z,0.95
2023-03-31T18:47:28.921Z,1.02
2023-03-31T18:49:57.583Z,1.08
2023-03-31T18:52:25.375Z,1.48
2023-03-31T18:54:53.109Z,0.95
2023-03-31T18:57:21.365Z,0.90
2023-03-31T18:59:49.047Z,0.98
2023-03-31T19:02:18.287Z,1.17
2023-03-31T19:04:46.844Z,1.00
2023-03-31T19:07:14.766Z,1.15
2023-03-31T19:09:42.665Z,0.93
2023-03-31T19:12:11.862Z,1.20
2023-03-31T19:14:41.060Z,0.93
2023-03-31T19:17:08.828Z,1.10
2023-03-31T19:19:38.016Z,1.00
2023-03-31T19:22:05.859Z,1.10
2023-03-31T19:24:33.764Z,1.20
2023-03-31T19:27:01.487Z,1.60
2023-03-31T19:29:30.335Z,1.67
2023-03-31T19:31:58.257Z,1.30
2023-03-31T19:34:26.179Z,1.70
2023-03-31T19:36:55.341Z,1.38
2023-03-31T19:39:23.055Z,1.33
2023-03-31T19:41:50.726Z,1.27
2023-03-31T19:44:18.395Z,1.50
2023-03-31T19:46:48.230Z,3.42
2023-03-31T19:49:16.527Z,1.83
2023-03-31T19:51:44.438Z,2.20
2023-03-31T19:54:13.994Z,2.03
2023-03-31T19:56:41.817Z,1.40
2023-03-31T19:59:09.659Z,1.25
2023-03-31T20:01:37.579Z,3.25
2023-03-31T20:04:06.108Z,3.67
2023-03-31T20:06:37.027Z,3.13
2023-03-31T20:09:06.308Z,1.40
2023-03-31T20:11:35.936Z,1.85
2023-03-31T20:14:04.658Z,1.65
2023-03-31T20:16:32.897Z,1.92
2023-03-31T20:19:04.201Z,1.00
2023-03-31T20:21:33.820Z,1.30
2023-03-31T20:24:01.586Z,2.22
2023-03-31T20:26:32.631Z,1.50
2023-03-31T20:29:03.460Z,1.50
2023-03-31T20:31:36.480Z,1.30
2023-03-31T20:34:05.895Z,1.58
2023-03-31T20:36:33.806Z,1.33
2023-03-31T20:39:04.095Z,1.52
2023-03-31T20:41:31.920Z,1.90
2023-03-31T20:44:01.864Z,1.63
2023-03-31T20:46:30.080Z,1.45
2023-03-31T20:48:58.884Z,1.50
2023-03-31T20:51:28.996Z,1.52
2023-03-31T20:53:57.971Z,1.95
2023-03-31T20:56:27.600Z,1.75
2023-03-31T20:58:58.861Z,1.50
2023-03-31T21:01:30.042Z,1.70
2023-03-31T21:04:00.869Z,1.63
2023-03-31T21:06:30.292Z,1.27
2023-03-31T21:08:58.488Z,1.60
2023-03-31T21:11:26.642Z,2.03
2023-03-31T21:13:54.535Z,1.50
2023-03-31T21:16:23.679Z,1.13
2023-03-31T21:18:54.916Z,1.60
2023-03-31T21:21:24.565Z,1.33
2023-03-31T21:23:52.639Z,1.40
2023-03-31T21:26:21.812Z,1.55
2023-03-31T21:28:51.425Z,1.60
2023-03-31T21:31:20.006Z,1.60
2023-03-31T21:33:48.320Z,1.20
2023-03-31T21:36:20.395Z,1.60
2023-03-31T21:38:49.247Z,1.35
2023-03-31T21:41:19.185Z,1.05
2023-03-31T21:43:47.120Z,1.38
2023-03-31T21:46:18.486Z,1.85
2023-03-31T21:48:46.619Z,1.10
2023-03-31T21:51:14.437Z,1.30
2023-03-31T21:53:43.771Z,1.33
2023-03-31T21:56:11.588Z,1.10
2023-03-31T21:58:39.490Z,0.88
2023-03-31T22:01:08.704Z,1.15
2023-03-31T22:03:38.353Z,1.00
2023-03-31T22:06:08.255Z,1.23
2023-03-31T22:08:37.480Z,1.10
2023-03-31T22:11:08.270Z,1.00
2023-03-31T22:13:36.762Z,1.25
2023-03-31T22:16:05.003Z,1.15
2023-03-31T22:18:33.083Z,1.02
2023-03-31T22:21:02.380Z,1.00
2023-03-31T22:23:30.081Z,1.15
2023-03-31T22:25:57.797Z,0.95
2023-03-31T22:28:26.830Z,0.93
2023-03-31T22:30:54.506Z,1.30
2023-03-31T22:33:22.210Z,1.10
2023-03-31T22:35:50.538Z,0.90
2023-03-31T22:38:18.349Z,0.90
2023-03-31T22:40:46.021Z,1.05
2023-03-31T22:43:13.695Z,1.02
2023-03-31T22:45:42.688Z,0.80
2023-03-31T22:48:19.933Z,0.93
2023-03-31T22:50:47.845Z,1.27
2023-03-31T23:02:05.340Z,1.05
2023-03-31T23:04:33.122Z,1.15
2023-03-31T23:07:00.837Z,0.95
2023-03-31T23:09:28.529Z,1.45
2023-03-31T23:11:56.223Z,1.20
2023-03-31T23:14:23.993Z,0.90
2023-03-31T23:16:53.116Z,0.93
2023-03-31T23:19:20.901Z,0.68
2023-03-31T23:21:48.586Z,0.88
2023-03-31T23:24:19.628Z,0.75
2023-03-31T23:26:47.440Z,0.95
2023-03-31T23:29:15.288Z,1.15
2023-03-31T23:31:42.989Z,1.30
2023-03-31T23:34:13.947Z,0.90
2023-03-31T23:36:41.633Z,0.95
2023-03-31T23:39:10.547Z,1.20
2023-03-31T23:41:38.400Z,0.82
2023-03-31T23:44:06.822Z,0.95
2023-03-31T23:46:34.649Z,1.13
2023-03-31T23:49:02.700Z,0.93
2023-03-31T23:51:31.746Z,1.00
2023-03-31T23:53:59.411Z,0.85
2023-03-31T23:56:28.796Z,1.02
2023-03-31T23:58:56.482Z,0.95
